sensor_id;sensor_type;location;lat;lon;timestamp;pressure;altitude;pressure_sealevel;temperature;humidity
65359;BME280;52491;45.900;6.346;2022-11-15T00:00:43;93699.50;;;24.82;32.55
65359;BME280;52491;45.900;6.346;2022-11-15T00:03:09;93686.44;;;24.81;32.58
65359;BME280;52491;45.900;6.346;2022-11-15T00:05:35;93686.44;;;24.81;32.64
65359;BME280;52491;45.900;6.346;2022-11-15T00:08:01;93684.06;;;24.79;32.45
65359;BME280;52491;45.900;6.346;2022-11-15T00:10:27;93682.97;;;24.80;32.39
65359;BME280;52491;45.900;6.346;2022-11-15T00:12:52;93685.66;;;24.80;32.61
65359;BME280;52491;45.900;6.346;2022-11-15T00:15:18;93680.06;;;24.76;32.25
65359;BME280;52491;45.900;6.346;2022-11-15T00:17:43;93689.94;;;24.76;32.50
65359;BME280;52491;45.900;6.346;2022-11-15T00:20:09;93682.72;;;24.76;32.54
65359;BME280;52491;45.900;6.346;2022-11-15T00:22:35;93679.28;;;24.76;32.20
65359;BME280;52491;45.900;6.346;2022-11-15T00:25:00;93685.41;;;24.76;32.42
65359;BME280;52491;45.900;6.346;2022-11-15T00:27:26;93684.59;;;24.76;32.11
65359;BME280;52491;45.900;6.346;2022-11-15T00:29:52;93685.66;;;24.75;32.53
65359;BME280;52491;45.900;6.346;2022-11-15T00:32:18;93688.31;;;24.75;32.15
65359;BME280;52491;45.900;6.346;2022-11-15T00:34:44;93677.66;;;24.75;32.37
65359;BME280;52491;45.900;6.346;2022-11-15T00:37:09;93681.41;;;24.74;32.54
65359;BME280;52491;45.900;6.346;2022-11-15T00:39:35;93682.19;;;24.74;32.41
65359;BME280;52491;45.900;6.346;2022-11-15T00:42:00;93678.72;;;24.74;32.30
65359;BME280;52491;45.900;6.346;2022-11-15T00:44:26;93669.41;;;24.71;32.35
65359;BME280;52491;45.900;6.346;2022-11-15T00:46:52;93669.94;;;24.73;32.69
65359;BME280;52491;45.900;6.346;2022-11-15T00:49:17;93678.19;;;24.72;32.29
65359;BME280;52491;45.900;6.346;2022-11-15T00:51:43;93674.75;;;24.71;32.15
65359;BME280;52491;45.900;6.346;2022-11-15T00:54:08;93677.41;;;24.71;32.35
65359;BME280;52491;45.900;6.346;2022-11-15T00:56:34;93664.06;;;24.66;32.53
65359;BME280;52491;45.900;6.346;2022-11-15T00:58:59;93677.94;;;24.68;32.56
65359;BME280;52491;45.900;6.346;2022-11-15T01:01:25;93682.47;;;24.68;32.75
65359;BME280;52491;45.900;6.346;2022-11-15T01:03:50;93674.75;;;24.66;32.67
65359;BME280;52491;45.900;6.346;2022-11-15T01:06:16;93668.63;;;24.66;32.55
65359;BME280;52491;45.900;6.346;2022-11-15T01:08:41;93671.28;;;24.66;32.60
65359;BME280;52491;45.900;6.346;2022-11-15T01:11:09;93674.47;;;24.68;32.68
65359;BME280;52491;45.900;6.346;2022-11-15T01:13:36;93673.66;;;24.67;32.51
65359;BME280;52491;45.900;6.346;2022-11-15T01:16:14;93670.19;;;24.67;32.11
65359;BME280;52491;45.900;6.346;2022-11-15T01:18:40;93669.16;;;24.68;32.28
65359;BME280;52491;45.900;6.346;2022-11-15T01:21:10;93660.34;;;24.67;32.39
65359;BME280;52491;45.900;6.346;2022-11-15T01:23:37;93658.75;;;24.66;32.62
65359;BME280;52491;45.900;6.346;2022-11-15T01:26:04;93652.34;;;24.67;32.29
65359;BME280;52491;45.900;6.346;2022-11-15T01:28:35;93655.00;;;24.67;32.46
65359;BME280;52491;45.900;6.346;2022-11-15T01:31:02;93647.00;;;24.67;32.49
65359;BME280;52491;45.900;6.346;2022-11-15T01:33:29;93645.94;;;24.68;32.31
65359;BME280;52491;45.900;6.346;2022-11-15T01:35:55;93639.84;;;24.68;32.10
65359;BME280;52491;45.900;6.346;2022-11-15T01:38:22;93640.34;;;24.70;32.42
65359;BME280;52491;45.900;6.346;2022-11-15T01:40:48;93629.97;;;24.68;32.32
65359;BME280;52491;45.900;6.346;2022-11-15T01:43:43;93629.44;;;24.66;32.17
65359;BME280;52491;45.900;6.346;2022-11-15T01:46:33;93632.09;;;24.66;32.46
65359;BME280;52491;45.900;6.346;2022-11-15T01:49:12;93624.09;;;24.66;32.14
65359;BME280;52491;45.900;6.346;2022-11-15T01:51:39;93616.09;;;24.66;32.50
65359;BME280;52491;45.900;6.346;2022-11-15T01:54:09;93622.50;;;24.65;31.98
65359;BME280;52491;45.900;6.346;2022-11-15T01:56:42;93613.44;;;24.66;32.50
65359;BME280;52491;45.900;6.346;2022-11-15T01:59:09;93615.00;;;24.67;32.32
65359;BME280;52491;45.900;6.346;2022-11-15T02:01:36;93613.97;;;24.68;32.06
65359;BME280;52491;45.900;6.346;2022-11-15T02:04:09;93614.75;;;24.69;32.22
65359;BME280;52491;45.900;6.346;2022-11-15T02:06:37;93602.50;;;24.68;32.33
65359;BME280;52491;45.900;6.346;2022-11-15T02:09:03;93603.84;;;24.70;32.09
65359;BME280;52491;45.900;6.346;2022-11-15T02:11:29;93597.69;;;24.70;32.14
65359;BME280;52491;45.900;6.346;2022-11-15T02:13:56;93593.69;;;24.67;32.11
65359;BME280;52491;45.900;6.346;2022-11-15T02:30:41;93579.84;;;24.65;32.16
65359;BME280;52491;45.900;6.346;2022-11-15T02:41:10;93572.41;;;24.62;32.07
65359;BME280;52491;45.900;6.346;2022-11-15T02:43:39;93564.13;;;24.64;32.29
65359;BME280;52491;45.900;6.346;2022-11-15T02:46:33;93557.22;;;24.63;32.00
65359;BME280;52491;45.900;6.346;2022-11-15T02:49:18;93556.13;;;24.59;32.40
65359;BME280;52491;45.900;6.346;2022-11-15T02:51:46;93553.75;;;24.62;32.42
65359;BME280;52491;45.900;6.346;2022-11-15T02:54:30;93548.69;;;24.61;32.14
65359;BME280;52491;45.900;6.346;2022-11-15T02:57:04;93547.09;;;24.60;32.06
65359;BME280;52491;45.900;6.346;2022-11-15T03:05:23;93544.44;;;24.60;32.01
65359;BME280;52491;45.900;6.346;2022-11-15T03:07:55;93528.16;;;24.61;31.86
65359;BME280;52491;45.900;6.346;2022-11-15T03:13:27;93531.88;;;24.60;31.95
65359;BME280;52491;45.900;6.346;2022-11-15T03:18:49;93522.31;;;24.59;32.16
65359;BME280;52491;45.900;6.346;2022-11-15T03:21:18;93519.09;;;24.62;31.99
65359;BME280;52491;45.900;6.346;2022-11-15T03:23:47;93527.59;;;24.64;32.02
65359;BME280;52491;45.900;6.346;2022-11-15T03:26:15;93522.28;;;24.64;31.90
65359;BME280;52491;45.900;6.346;2022-11-15T03:28:53;93519.59;;;24.64;31.88
65359;BME280;52491;45.900;6.346;2022-11-15T03:31:21;93521.22;;;24.65;31.99
65359;BME280;52491;45.900;6.346;2022-11-15T03:34:11;93523.88;;;24.65;32.04
65359;BME280;52491;45.900;6.346;2022-11-15T03:36:39;93527.34;;;24.66;31.85
65359;BME280;52491;45.900;6.346;2022-11-15T03:39:07;93515.09;;;24.65;31.73
65359;BME280;52491;45.900;6.346;2022-11-15T03:47:38;93507.63;;;24.62;32.13
65359;BME280;52491;45.900;6.346;2022-11-15T03:50:33;93508.44;;;24.62;32.25
65359;BME280;52491;45.900;6.346;2022-11-15T03:52:59;93503.09;;;24.62;31.95
65359;BME280;52491;45.900;6.346;2022-11-15T03:55:24;93502.28;;;24.62;32.11
65359;BME280;52491;45.900;6.346;2022-11-15T03:57:54;93494.03;;;24.63;32.08
65359;BME280;52491;45.900;6.346;2022-11-15T04:00:21;93496.16;;;24.61;32.05
65359;BME280;52491;45.900;6.346;2022-11-15T04:02:47;93492.44;;;24.62;31.89
65359;BME280;52491;45.900;6.346;2022-11-15T04:05:13;93483.38;;;24.63;31.78
65359;BME280;52491;45.900;6.346;2022-11-15T04:07:38;93483.38;;;24.63;31.97
65359;BME280;52491;45.900;6.346;2022-11-15T04:10:04;93477.50;;;24.61;31.71
65359;BME280;52491;45.900;6.346;2022-11-15T04:12:35;93475.38;;;24.63;31.74
65359;BME280;52491;45.900;6.346;2022-11-15T04:15:07;93478.03;;;24.63;31.91
65359;BME280;52491;45.900;6.346;2022-11-15T04:23:02;93478.81;;;24.64;31.85
65359;BME280;52491;45.900;6.346;2022-11-15T04:25:48;93486.03;;;24.63;31.97
65359;BME280;52491;45.900;6.346;2022-11-15T04:28:15;93492.44;;;24.62;31.94
65359;BME280;52491;45.900;6.346;2022-11-15T04:30:40;93502.81;;;24.64;31.73
65359;BME280;52491;45.900;6.346;2022-11-15T04:33:06;93502.03;;;24.63;31.89
65359;BME280;52491;45.900;6.346;2022-11-15T04:35:32;93500.94;;;24.64;32.00
65359;BME280;52491;45.900;6.346;2022-11-15T04:37:58;93499.09;;;24.65;31.56
65359;BME280;52491;45.900;6.346;2022-11-15T04:40:24;93499.09;;;24.65;31.93
65359;BME280;52491;45.900;6.346;2022-11-15T04:42:49;93497.47;;;24.64;31.90
65359;BME280;52491;45.900;6.346;2022-11-15T04:45:15;93496.44;;;24.65;31.92
65359;BME280;52491;45.900;6.346;2022-11-15T04:47:43;93499.88;;;24.65;31.96
65359;BME280;52491;45.900;6.346;2022-11-15T04:50:10;93483.09;;;24.65;31.66
65359;BME280;52491;45.900;6.346;2022-11-15T04:52:40;93476.97;;;24.64;31.78
65359;BME280;52491;45.900;6.346;2022-11-15T04:55:05;93478.03;;;24.63;31.77
65359;BME280;52491;45.900;6.346;2022-11-15T04:57:31;93476.16;;;24.64;31.61
65359;BME280;52491;45.900;6.346;2022-11-15T04:59:57;93478.56;;;24.65;31.75
65359;BME280;52491;45.900;6.346;2022-11-15T05:02:22;93479.63;;;24.64;31.75
65359;BME280;52491;45.900;6.346;2022-11-15T05:04:48;93473.50;;;24.64;31.77
65359;BME280;52491;45.900;6.346;2022-11-15T05:07:13;93474.28;;;24.64;31.82
65359;BME280;52491;45.900;6.346;2022-11-15T05:09:39;93466.28;;;24.64;31.89
65359;BME280;52491;45.900;6.346;2022-11-15T05:12:04;93470.84;;;24.64;32.00
65359;BME280;52491;45.900;6.346;2022-11-15T05:14:30;93471.38;;;24.66;31.98
65359;BME280;52491;45.900;6.346;2022-11-15T05:16:56;93451.91;;;24.65;31.59
65359;BME280;52491;45.900;6.346;2022-11-15T05:19:21;93457.25;;;24.65;32.06
65359;BME280;52491;45.900;6.346;2022-11-15T05:21:47;93468.69;;;24.66;31.79
65359;BME280;52491;45.900;6.346;2022-11-15T05:24:12;93469.50;;;24.66;31.93
65359;BME280;52491;45.900;6.346;2022-11-15T05:26:38;93468.69;;;24.66;31.87
65359;BME280;52491;45.900;6.346;2022-11-15T05:29:03;93462.56;;;24.65;32.01
65359;BME280;52491;45.900;6.346;2022-11-15T05:31:29;93447.38;;;24.66;31.66
65359;BME280;52491;45.900;6.346;2022-11-15T05:33:56;93446.28;;;24.67;31.75
65359;BME280;52491;45.900;6.346;2022-11-15T05:36:38;93446.03;;;24.68;31.75
65359;BME280;52491;45.900;6.346;2022-11-15T05:39:05;93443.91;;;24.70;31.62
65359;BME280;52491;45.900;6.346;2022-11-15T05:44:04;93439.63;;;24.69;31.93
65359;BME280;52491;45.900;6.346;2022-11-15T05:46:32;93449.22;;;24.70;31.87
65359;BME280;52491;45.900;6.346;2022-11-15T05:48:59;93447.09;;;24.67;31.76
65359;BME280;52491;45.900;6.346;2022-11-15T05:51:27;93453.25;;;24.68;31.63
65359;BME280;52491;45.900;6.346;2022-11-15T05:53:55;93457.75;;;24.67;31.89
65359;BME280;52491;45.900;6.346;2022-11-15T05:56:22;93449.50;;;24.69;31.67
65359;BME280;52491;45.900;6.346;2022-11-15T05:58:47;93447.09;;;24.67;31.72
65359;BME280;52491;45.900;6.346;2022-11-15T06:01:13;93440.97;;;24.67;31.89
65359;BME280;52491;45.900;6.346;2022-11-15T06:03:39;93431.09;;;24.67;32.04
65359;BME280;52491;45.900;6.346;2022-11-15T06:06:05;93435.91;;;24.70;31.99
65359;BME280;52491;45.900;6.346;2022-11-15T06:08:30;93428.44;;;24.67;31.75
65359;BME280;52491;45.900;6.346;2022-11-15T06:10:56;93433.22;;;24.70;32.11
65359;BME280;52491;45.900;6.346;2022-11-15T06:13:21;93433.22;;;24.70;32.05
65359;BME280;52491;45.900;6.346;2022-11-15T06:15:47;93435.63;;;24.67;31.77
65359;BME280;52491;45.900;6.346;2022-11-15T06:18:12;93442.03;;;24.71;31.83
65359;BME280;52491;45.900;6.346;2022-11-15T06:20:38;93445.47;;;24.71;31.82
65359;BME280;52491;45.900;6.346;2022-11-15T06:23:04;93449.22;;;24.70;31.76
65359;BME280;52491;45.900;6.346;2022-11-15T06:25:31;93437.47;;;24.71;32.00
65359;BME280;52491;45.900;6.346;2022-11-15T06:27:58;93451.59;;;24.72;31.77
65359;BME280;52491;45.900;6.346;2022-11-15T06:30:25;93444.41;;;24.67;31.94
65359;BME280;52491;45.900;6.346;2022-11-15T06:33:03;93445.78;;;24.65;31.88
65359;BME280;52491;45.900;6.346;2022-11-15T06:35:30;93441.50;;;24.64;32.19
65359;BME280;52491;45.900;6.346;2022-11-15T06:38:06;93438.59;;;24.65;32.06
65359;BME280;52491;45.900;6.346;2022-11-15T06:40:36;93421.25;;;24.68;31.98
65359;BME280;52491;45.900;6.346;2022-11-15T06:43:04;93424.19;;;24.66;31.90
65359;BME280;52491;45.900;6.346;2022-11-15T06:45:31;93419.94;;;24.65;31.92
65359;BME280;52491;45.900;6.346;2022-11-15T06:47:57;93431.38;;;24.66;32.27
65359;BME280;52491;45.900;6.346;2022-11-15T06:50:23;93435.91;;;24.65;32.13
65359;BME280;52491;45.900;6.346;2022-11-15T06:52:49;93442.84;;;24.66;32.14
65359;BME280;52491;45.900;6.346;2022-11-15T06:55:15;93431.09;;;24.67;32.00
65359;BME280;52491;45.900;6.346;2022-11-15T06:57:49;93440.16;;;24.66;32.04
65359;BME280;52491;45.900;6.346;2022-11-15T07:00:15;93435.66;;;24.62;31.99
65359;BME280;52491;45.900;6.346;2022-11-15T07:02:41;93442.88;;;24.56;32.17
65359;BME280;52491;45.900;6.346;2022-11-15T07:05:07;93438.63;;;24.55;32.29
65359;BME280;52491;45.900;6.346;2022-11-15T07:07:32;93437.53;;;24.56;32.15
65359;BME280;52491;45.900;6.346;2022-11-15T07:09:58;93447.16;;;24.57;32.49
65359;BME280;52491;45.900;6.346;2022-11-15T07:12:23;93441.53;;;24.59;32.08
65359;BME280;52491;45.900;6.346;2022-11-15T07:14:49;93438.06;;;24.58;32.45
65359;BME280;52491;45.900;6.346;2022-11-15T07:17:14;93423.69;;;24.59;32.16
65359;BME280;52491;45.900;6.346;2022-11-15T07:19:40;93425.28;;;24.60;32.11
65359;BME280;52491;45.900;6.346;2022-11-15T07:22:06;93418.38;;;24.59;32.31
65359;BME280;52491;45.900;6.346;2022-11-15T07:24:31;93416.19;;;24.61;32.24
65359;BME280;52491;45.900;6.346;2022-11-15T07:26:57;93418.59;;;24.63;32.34
65359;BME280;52491;45.900;6.346;2022-11-15T07:29:22;93421.53;;;24.61;32.11
65359;BME280;52491;45.900;6.346;2022-11-15T07:31:49;93424.50;;;24.60;32.43
65359;BME280;52491;45.900;6.346;2022-11-15T07:34:15;93422.63;;;24.60;32.40
65359;BME280;52491;45.900;6.346;2022-11-15T07:36:42;93431.41;;;24.61;32.30
65359;BME280;52491;45.900;6.346;2022-11-15T07:39:07;93439.13;;;24.62;32.32
65359;BME280;52491;45.900;6.346;2022-11-15T07:41:33;93426.88;;;24.61;32.27
65359;BME280;52491;45.900;6.346;2022-11-15T07:43:59;93418.59;;;24.63;32.14
65359;BME280;52491;45.900;6.346;2022-11-15T07:46:25;93419.66;;;24.62;32.46
65359;BME280;52491;45.900;6.346;2022-11-15T07:48:51;93415.16;;;24.62;32.10
65359;BME280;52491;45.900;6.346;2022-11-15T07:51:16;93409.81;;;24.62;32.04
65359;BME280;52491;45.900;6.346;2022-11-15T07:53:43;93408.75;;;24.63;32.41
65359;BME280;52491;45.900;6.346;2022-11-15T07:56:09;93414.06;;;24.63;32.25
65359;BME280;52491;45.900;6.346;2022-11-15T07:58:35;93408.75;;;24.63;32.29
65359;BME280;52491;45.900;6.346;2022-11-15T08:01:05;93406.06;;;24.63;32.11
65359;BME280;52491;45.900;6.346;2022-11-15T08:03:32;93411.41;;;24.63;32.06
65359;BME280;52491;45.900;6.346;2022-11-15T08:05:57;93403.41;;;24.63;32.34
65359;BME280;52491;45.900;6.346;2022-11-15T08:08:23;93406.88;;;24.64;32.08
65359;BME280;52491;45.900;6.346;2022-11-15T08:10:48;93396.50;;;24.62;32.07
65359;BME280;52491;45.900;6.346;2022-11-15T08:13:14;93397.28;;;24.63;32.40
65359;BME280;52491;45.900;6.346;2022-11-15T08:15:40;93391.16;;;24.62;32.16
65359;BME280;52491;45.900;6.346;2022-11-15T08:18:11;93396.50;;;24.62;32.14
65359;BME280;52491;45.900;6.346;2022-11-15T08:20:37;93388.75;;;24.61;32.31
65359;BME280;52491;45.900;6.346;2022-11-15T08:23:03;93388.50;;;24.62;32.45
65359;BME280;52491;45.900;6.346;2022-11-15T08:25:31;93387.69;;;24.62;32.14
65359;BME280;52491;45.900;6.346;2022-11-15T08:27:59;93392.75;;;24.63;32.28
65359;BME280;52491;45.900;6.346;2022-11-15T08:30:25;93384.78;;;24.58;32.48
65359;BME280;52491;45.900;6.346;2022-11-15T08:32:52;93385.31;;;24.60;32.53
65359;BME280;52491;45.900;6.346;2022-11-15T08:35:19;93380.22;;;24.59;32.42
65359;BME280;52491;45.900;6.346;2022-11-15T08:37:45;93380.22;;;24.59;32.33
65359;BME280;52491;45.900;6.346;2022-11-15T08:40:12;93376.78;;;24.58;32.40
65359;BME280;52491;45.900;6.346;2022-11-15T08:42:39;93375.72;;;24.59;32.19
65359;BME280;52491;45.900;6.346;2022-11-15T08:45:05;93371.44;;;24.58;32.24
65359;BME280;52491;45.900;6.346;2022-11-15T08:47:31;93376.00;;;24.58;32.43
65359;BME280;52491;45.900;6.346;2022-11-15T08:49:57;93375.72;;;24.59;32.19
65359;BME280;52491;45.900;6.346;2022-11-15T08:52:22;93370.66;;;24.58;32.36
65359;BME280;52491;45.900;6.346;2022-11-15T08:54:48;93364.81;;;24.55;32.19
65359;BME280;52491;45.900;6.346;2022-11-15T08:57:14;93364.25;;;24.59;32.35
65359;BME280;52491;45.900;6.346;2022-11-15T08:59:39;93369.56;;;24.59;32.31
65359;BME280;52491;45.900;6.346;2022-11-15T09:02:05;93360.00;;;24.58;32.43
65359;BME280;52491;45.900;6.346;2022-11-15T09:04:31;93360.00;;;24.58;32.32
65359;BME280;52491;45.900;6.346;2022-11-15T09:06:56;93353.34;;;24.55;32.54
65359;BME280;52491;45.900;6.346;2022-11-15T09:09:22;93359.47;;;24.55;32.38
65359;BME280;52491;45.900;6.346;2022-11-15T09:11:47;93354.13;;;24.55;32.68
65359;BME280;52491;45.900;6.346;2022-11-15T09:14:14;93351.47;;;24.55;32.53
65359;BME280;52491;45.900;6.346;2022-11-15T09:16:40;93337.66;;;24.53;32.56
65359;BME280;52491;45.900;6.346;2022-11-15T09:19:06;93346.94;;;24.56;32.24
65359;BME280;52491;45.900;6.346;2022-11-15T09:21:31;93340.03;;;24.55;32.58
65359;BME280;52491;45.900;6.346;2022-11-15T09:23:57;93346.94;;;24.56;32.57
65359;BME280;52491;45.900;6.346;2022-11-15T09:26:23;93338.44;;;24.54;32.39
65359;BME280;52491;45.900;6.346;2022-11-15T09:28:48;93327.78;;;24.54;32.38
65359;BME280;52491;45.900;6.346;2022-11-15T09:31:14;93329.38;;;24.55;32.59
65359;BME280;52491;45.900;6.346;2022-11-15T09:33:40;93322.44;;;24.54;32.30
65359;BME280;52491;45.900;6.346;2022-11-15T09:36:08;93333.91;;;24.54;32.31
65359;BME280;52491;45.900;6.346;2022-11-15T09:38:34;93333.59;;;24.56;32.14
65359;BME280;52491;45.900;6.346;2022-11-15T09:48:54;93319.50;;;24.55;32.42
65359;BME280;52491;45.900;6.346;2022-11-15T09:51:37;93309.13;;;24.54;32.42
65359;BME280;52491;45.900;6.346;2022-11-15T09:56:53;93319.22;;;24.57;32.42
65359;BME280;52491;45.900;6.346;2022-11-15T10:04:57;93314.19;;;24.50;32.54
65359;BME280;52491;45.900;6.346;2022-11-15T10:10:30;93310.25;;;24.48;32.44
65359;BME280;52491;45.900;6.346;2022-11-15T10:12:57;93299.28;;;24.49;32.77
65359;BME280;52491;45.900;6.346;2022-11-15T10:15:24;93301.16;;;24.49;32.40
65359;BME280;52491;45.900;6.346;2022-11-15T10:20:27;93300.88;;;24.50;32.65
65359;BME280;52491;45.900;6.346;2022-11-15T10:22:56;93292.88;;;24.50;32.71
65359;BME280;52491;45.900;6.346;2022-11-15T10:25:26;93286.75;;;24.50;32.68
65359;BME280;52491;45.900;6.346;2022-11-15T10:28:43;93285.97;;;24.49;32.63
65359;BME280;52491;45.900;6.346;2022-11-15T10:30:53;93287.84;;;24.49;32.68
65359;BME280;52491;45.900;6.346;2022-11-15T10:35:44;93273.72;;;24.48;32.46
65359;BME280;52491;45.900;6.346;2022-11-15T10:38:11;93265.44;;;24.50;32.74
65359;BME280;52491;45.900;6.346;2022-11-15T10:40:38;93263.81;;;24.54;32.53
65359;BME280;52491;45.900;6.346;2022-11-15T10:45:36;93245.16;;;24.54;32.67
65359;BME280;52491;45.900;6.346;2022-11-15T10:50:36;93248.66;;;24.49;32.66
65359;BME280;52491;45.900;6.346;2022-11-15T10:53:03;93238.78;;;24.50;32.46
65359;BME280;52491;45.900;6.346;2022-11-15T10:55:31;93232.97;;;24.48;32.67
65359;BME280;52491;45.900;6.346;2022-11-15T10:58:20;93225.25;;;24.46;32.84
65359;BME280;52491;45.900;6.346;2022-11-15T11:00:46;93220.69;;;24.47;32.77
65359;BME280;52491;45.900;6.346;2022-11-15T11:03:43;93214.59;;;24.46;32.52
65359;BME280;52491;45.900;6.346;2022-11-15T11:06:17;93211.91;;;24.46;32.77
65359;BME280;52491;45.900;6.346;2022-11-15T11:09:00;93211.13;;;24.46;32.53
65359;BME280;52491;45.900;6.346;2022-11-15T11:11:47;93202.34;;;24.45;32.61
65359;BME280;52491;45.900;6.346;2022-11-15T11:14:25;93194.63;;;24.44;32.93
65359;BME280;52491;45.900;6.346;2022-11-15T11:19:39;93198.06;;;24.44;32.61
65359;BME280;52491;45.900;6.346;2022-11-15T11:22:26;93192.75;;;24.44;32.79
65359;BME280;52491;45.900;6.346;2022-11-15T11:33:31;93180.75;;;24.42;32.91
65359;BME280;52491;45.900;6.346;2022-11-15T11:38:58;93182.34;;;24.43;32.79
65359;BME280;52491;45.900;6.346;2022-11-15T11:47:27;93159.44;;;24.42;33.01
65359;BME280;52491;45.900;6.346;2022-11-15T11:49:59;93154.41;;;24.40;32.92
65359;BME280;52491;45.900;6.346;2022-11-15T11:52:31;93146.38;;;24.45;33.18
65359;BME280;52491;45.900;6.346;2022-11-15T11:55:16;93145.31;;;24.46;33.27
65359;BME280;52491;45.900;6.346;2022-11-15T12:00:25;93136.53;;;24.46;33.11
65359;BME280;52491;45.900;6.346;2022-11-15T12:05:32;93137.31;;;24.46;33.33
65359;BME280;52491;45.900;6.346;2022-11-15T12:08:33;93131.19;;;24.46;33.39
65359;BME280;52491;45.900;6.346;2022-11-15T12:11:10;93130.09;;;24.47;33.38
65359;BME280;52491;45.900;6.346;2022-11-15T12:13:40;93124.00;;;24.46;33.54
65359;BME280;52491;45.900;6.346;2022-11-15T12:16:18;93116.78;;;24.47;33.30
65359;BME280;52491;45.900;6.346;2022-11-15T12:18:50;93130.91;;;24.47;33.28
65359;BME280;52491;45.900;6.346;2022-11-15T12:24:11;93129.88;;;24.43;33.41
65359;BME280;52491;45.900;6.346;2022-11-15T12:26:42;93114.41;;;24.45;33.76
65359;BME280;52491;45.900;6.346;2022-11-15T12:29:49;93109.88;;;24.46;33.40
65359;BME280;52491;45.900;6.346;2022-11-15T12:32:24;93103.47;;;24.42;33.68
65359;BME280;52491;45.900;6.346;2022-11-15T12:34:51;93103.25;;;24.43;33.42
65359;BME280;52491;45.900;6.346;2022-11-15T12:40:31;93101.59;;;24.42;33.74
65359;BME280;52491;45.900;6.346;2022-11-15T12:45:40;93090.72;;;24.44;33.47
65359;BME280;52491;45.900;6.346;2022-11-15T12:50:56;93077.38;;;24.44;33.49
65359;BME280;52491;45.900;6.346;2022-11-15T13:01:06;93063.28;;;24.43;33.65
65359;BME280;52491;45.900;6.346;2022-11-15T13:03:32;93053.41;;;24.44;33.87
65359;BME280;52491;45.900;6.346;2022-11-15T13:06:01;93045.94;;;24.41;33.58
65359;BME280;52491;45.900;6.346;2022-11-15T13:08:42;93045.41;;;24.44;33.69
65359;BME280;52491;45.900;6.346;2022-11-15T13:12:47;93035.00;;;24.42;33.72
65359;BME280;52491;45.900;6.346;2022-11-15T13:20:02;93028.88;;;24.42;33.92
65359;BME280;52491;45.900;6.346;2022-11-15T13:30:35;93016.66;;;24.41;33.78
65359;BME280;52491;45.900;6.346;2022-11-15T13:33:08;93010.22;;;24.42;33.64
65359;BME280;52491;45.900;6.346;2022-11-15T13:35:38;93004.13;;;24.41;33.98
65359;BME280;52491;45.900;6.346;2022-11-15T13:38:05;93001.44;;;24.41;33.83
65359;BME280;52491;45.900;6.346;2022-11-15T13:40:36;92994.53;;;24.40;33.69
65359;BME280;52491;45.900;6.346;2022-11-15T13:43:27;92999.34;;;24.38;33.83
65359;BME280;52491;45.900;6.346;2022-11-15T13:46:20;92992.16;;;24.39;33.92
65359;BME280;52491;45.900;6.346;2022-11-15T13:48:50;92990.28;;;24.39;33.84
65359;BME280;52491;45.900;6.346;2022-11-15T13:59:44;92967.16;;;24.34;33.95
65359;BME280;52491;45.900;6.346;2022-11-15T14:02:15;92967.97;;;24.35;34.40
65359;BME280;52491;45.900;6.346;2022-11-15T14:04:53;92962.84;;;24.39;34.21
65359;BME280;52491;45.900;6.346;2022-11-15T14:07:24;92962.84;;;24.39;33.96
65359;BME280;52491;45.900;6.346;2022-11-15T14:09:51;92966.59;;;24.38;34.07
65359;BME280;52491;45.900;6.346;2022-11-15T14:12:30;92965.28;;;24.35;34.34
65359;BME280;52491;45.900;6.346;2022-11-15T14:14:59;92962.91;;;24.33;34.35
65359;BME280;52491;45.900;6.346;2022-11-15T14:19:57;92955.72;;;24.34;34.24
65359;BME280;52491;45.900;6.346;2022-11-15T14:22:25;92951.19;;;24.34;34.24
65359;BME280;52491;45.900;6.346;2022-11-15T14:27:39;92949.31;;;24.35;34.45
65359;BME280;52491;45.900;6.346;2022-11-15T14:30:06;92941.31;;;24.35;34.36
65359;BME280;52491;45.900;6.346;2022-11-15T14:32:49;92936.00;;;24.35;34.21
65359;BME280;52491;45.900;6.346;2022-11-15T14:35:18;92935.22;;;24.34;34.34
65359;BME280;52491;45.900;6.346;2022-11-15T14:37:44;92936.00;;;24.35;34.36
65359;BME280;52491;45.900;6.346;2022-11-15T14:40:14;92927.22;;;24.34;34.33
65359;BME280;52491;45.900;6.346;2022-11-15T14:42:40;92927.22;;;24.34;34.21
65359;BME280;52491;45.900;6.346;2022-11-15T14:45:14;92925.59;;;24.33;34.26
65359;BME280;52491;45.900;6.346;2022-11-15T14:47:41;92925.59;;;24.33;34.22
65359;BME280;52491;45.900;6.346;2022-11-15T14:50:11;92920.59;;;24.32;34.14
65359;BME280;52491;45.900;6.346;2022-11-15T14:52:37;92916.03;;;24.32;34.23
65359;BME280;52491;45.900;6.346;2022-11-15T14:55:09;92914.69;;;24.35;34.39
65359;BME280;52491;45.900;6.346;2022-11-15T14:57:35;92908.56;;;24.34;34.47
65359;BME280;52491;45.900;6.346;2022-11-15T15:00:01;92913.09;;;24.34;34.46
65359;BME280;52491;45.900;6.346;2022-11-15T15:02:28;92899.78;;;24.34;34.19
65359;BME280;52491;45.900;6.346;2022-11-15T15:04:53;92897.13;;;24.34;34.07
65359;BME280;52491;45.900;6.346;2022-11-15T15:07:19;92896.31;;;24.33;34.13
65359;BME280;52491;45.900;6.346;2022-11-15T15:09:45;92902.44;;;24.34;34.17
65359;BME280;52491;45.900;6.346;2022-11-15T15:12:19;92890.97;;;24.33;34.45
65359;BME280;52491;45.900;6.346;2022-11-15T15:14:46;92889.13;;;24.34;34.23
65359;BME280;52491;45.900;6.346;2022-11-15T15:17:12;92878.47;;;24.34;34.39
65359;BME280;52491;45.900;6.346;2022-11-15T15:19:38;92877.66;;;24.33;34.12
65359;BME280;52491;45.900;6.346;2022-11-15T15:22:03;92876.88;;;24.33;34.28
65359;BME280;52491;45.900;6.346;2022-11-15T15:24:29;92869.66;;;24.33;34.33
65359;BME280;52491;45.900;6.346;2022-11-15T15:26:55;92872.34;;;24.33;34.44
65359;BME280;52491;45.900;6.346;2022-11-15T15:29:20;92872.34;;;24.33;34.36
65359;BME280;52491;45.900;6.346;2022-11-15T15:31:46;92869.66;;;24.33;34.37
65359;BME280;52491;45.900;6.346;2022-11-15T15:34:12;92860.91;;;24.33;34.07
65359;BME280;52491;45.900;6.346;2022-11-15T15:36:37;92855.56;;;24.33;34.42
65359;BME280;52491;45.900;6.346;2022-11-15T15:39:03;92850.53;;;24.31;34.29